INFORMAÇÕES METEOROLÓGICAS
METAR FOR GCTS
ADDS - METARS form results

(1147 UTC 18 June 2018)
Data provider http://aviationweather.gov/adds/metars/
 
METAR text: GCTS 181130Z 12009KT 090V150 9999 FEW020 BKN025 21/15 Q1020 NOSIG
Conditions at: GCTS (TENERIFE SUR/REI, ES) observed 1130 UTC 18 June 2018
Temperature: 21.0°C (70°F)
Dewpoint: 15.0°C (59°F) [RH = 69%]
Pressure (altimeter): 30.12 inches Hg (1020.0 mb)
Winds: from the ESE (120 degrees) at 10 MPH (9 knots; 4.7 m/s)
Visibility: 6 or more miles (10+ km)
Ceiling: 2500 feet AGL
Clouds: few clouds at 2000 feet AGL
broken clouds at 2500 feet AGL
Weather: no significant weather observed at this time

METAR text: GCTS 181100Z 11011KT 9999 FEW020 BKN025 21/15 Q1020 NOSIG
Conditions at: GCTS (TENERIFE SUR/REI, ES) observed 1100 UTC 18 June 2018
Temperature: 21.0°C (70°F)
Dewpoint: 15.0°C (59°F) [RH = 69%]
Pressure (altimeter): 30.12 inches Hg (1020.0 mb)
Winds: from the ESE (110 degrees) at 13 MPH (11 knots; 5.7 m/s)
Visibility: 6 or more miles (10+ km)
Ceiling: 2500 feet AGL
Clouds: few clouds at 2000 feet AGL
broken clouds at 2500 feet AGL
Weather: no significant weather observed at this time

Forecast for: GCTS (TENERIFE SUR/REI, ES)
Text: TAF GCTS 180800Z 1809/1909 08008KT 9999 BKN030 TX25/1814Z TN18/1905Z
Forecast period: 0900 UTC 18 June 2018 to 0900 UTC 19 June 2018
Forecast type: FROM: standard forecast or significant change
Winds: from the E (80 degrees) at 9 MPH (8 knots; 4.2 m/s)
Visibility: 6 or more miles (10+ km)
Ceiling: 3000 feet AGL
Clouds: broken clouds at 3000 feet AGL
Weather: no significant weather forecast for this period
Text: TEMPO 1812/1819 15010KT
Forecast period: 1200 to 1900 UTC 18 June 2018
Forecast type: TEMPORARY: The following changes expected for less than half the time period
Winds: from the SSE (150 degrees) at 12 MPH (10 knots; 5.2 m/s)
Weather: no significant weather forecast for this period

 MAPA DO AEROPORTO

 INFORMAÇÕES DA PISTA
Pista 08 Tamanho da pista 10499 ft Largura da pista 148 ft
Elevação da pista 187 ft Ranhura da pista 0 ft Proa da pista 69
Pista 26 Tamanho da pista 10499 ft Largura da pista 148 ft
Elevação da pista 209 ft Ranhura da pista 0 ft Proa da pista 249

 FREQUÊNCIAS DO AEROPORTO
Tipo APP Nome APP Frequência 120.3 MHZ
Tipo ATIS Nome ATIS Frequência 118.675 MHZ
Tipo GND Nome GND Frequência 121.9 MHZ
Tipo TWR Nome TWR Frequência 119 MHZ

 AUXÍLIOS DE NAVEGAÇÃO PRÓXIMOS AO AEROPORTO
Tipo NDB Nome Tenerife Sur Frequência 317 KHZ
Tipo VOR-DME Nome Tenerife Sur Frequência 116400 KHZ



Powered by Mercosul Lnhas Aereas